sensor_id;sensor_type;location;lat;lon;timestamp;P1;durP1;ratioP1;P2;durP2;ratioP2
64641;SDS011;59936;51.490;5.436;2022-10-31T00:00:25;24.08;;;13.68;;
64641;SDS011;59936;51.490;5.436;2022-10-31T00:05:29;18.55;;;12.65;;
64641;SDS011;59936;51.490;5.436;2022-10-31T00:10:32;22.52;;;12.93;;
64641;SDS011;59936;51.490;5.436;2022-10-31T00:15:33;24.05;;;13.13;;
64641;SDS011;59936;51.490;5.436;2022-10-31T00:20:37;19.83;;;12.93;;
64641;SDS011;59936;51.490;5.436;2022-10-31T00:25:39;21.25;;;13.65;;
64641;SDS011;59936;51.490;5.436;2022-10-31T00:30:43;31.75;;;14.15;;
64641;SDS011;59936;51.490;5.436;2022-10-31T00:35:50;22.30;;;13.15;;
64641;SDS011;59936;51.490;5.436;2022-10-31T00:40:53;23.58;;;13.43;;
64641;SDS011;59936;51.490;5.436;2022-10-31T00:45:54;21.77;;;13.13;;
64641;SDS011;59936;51.490;5.436;2022-10-31T00:50:58;26.45;;;14.73;;
64641;SDS011;59936;51.490;5.436;2022-10-31T00:56:00;27.70;;;14.27;;
64641;SDS011;59936;51.490;5.436;2022-10-31T01:01:04;27.20;;;14.52;;
64641;SDS011;59936;51.490;5.436;2022-10-31T01:06:08;26.88;;;14.98;;
64641;SDS011;59936;51.490;5.436;2022-10-31T01:11:13;25.25;;;13.48;;
64641;SDS011;59936;51.490;5.436;2022-10-31T01:16:18;22.25;;;12.77;;
64641;SDS011;59936;51.490;5.436;2022-10-31T01:21:27;18.13;;;12.30;;
64641;SDS011;59936;51.490;5.436;2022-10-31T01:26:31;23.55;;;14.32;;
64641;SDS011;59936;51.490;5.436;2022-10-31T01:31:34;30.58;;;15.13;;
64641;SDS011;59936;51.490;5.436;2022-10-31T01:36:41;28.15;;;13.65;;
64641;SDS011;59936;51.490;5.436;2022-10-31T01:41:49;26.50;;;13.73;;
64641;SDS011;59936;51.490;5.436;2022-10-31T01:46:55;32.70;;;14.77;;
64641;SDS011;59936;51.490;5.436;2022-10-31T01:52:03;24.30;;;14.25;;
64641;SDS011;59936;51.490;5.436;2022-10-31T01:57:11;31.25;;;14.43;;
64641;SDS011;59936;51.490;5.436;2022-10-31T02:02:16;27.05;;;14.85;;
64641;SDS011;59936;51.490;5.436;2022-10-31T02:07:23;25.27;;;14.48;;
64641;SDS011;59936;51.490;5.436;2022-10-31T02:12:33;27.27;;;14.55;;
64641;SDS011;59936;51.490;5.436;2022-10-31T02:17:37;24.85;;;14.68;;
64641;SDS011;59936;51.490;5.436;2022-10-31T02:28:06;29.98;;;14.38;;
64641;SDS011;59936;51.490;5.436;2022-10-31T02:33:35;27.40;;;14.02;;
64641;SDS011;59936;51.490;5.436;2022-10-31T02:38:47;26.73;;;14.75;;
64641;SDS011;59936;51.490;5.436;2022-10-31T02:44:05;27.00;;;14.50;;
64641;SDS011;59936;51.490;5.436;2022-10-31T02:49:21;34.65;;;14.73;;
64641;SDS011;59936;51.490;5.436;2022-10-31T02:54:28;28.65;;;14.90;;
64641;SDS011;59936;51.490;5.436;2022-10-31T02:59:34;33.30;;;15.27;;
64641;SDS011;59936;51.490;5.436;2022-10-31T03:04:51;34.17;;;16.80;;
64641;SDS011;59936;51.490;5.436;2022-10-31T03:10:11;38.90;;;15.85;;
64641;SDS011;59936;51.490;5.436;2022-10-31T03:15:28;33.60;;;15.38;;
64641;SDS011;59936;51.490;5.436;2022-10-31T03:20:39;29.60;;;15.82;;
64641;SDS011;59936;51.490;5.436;2022-10-31T03:25:45;29.85;;;14.43;;
64641;SDS011;59936;51.490;5.436;2022-10-31T03:30:50;25.85;;;13.43;;
64641;SDS011;59936;51.490;5.436;2022-10-31T03:35:56;31.65;;;14.77;;
64641;SDS011;59936;51.490;5.436;2022-10-31T03:41:03;29.75;;;13.80;;
64641;SDS011;59936;51.490;5.436;2022-10-31T03:46:11;29.70;;;14.80;;
64641;SDS011;59936;51.490;5.436;2022-10-31T03:56:27;31.65;;;15.30;;
64641;SDS011;59936;51.490;5.436;2022-10-31T04:01:37;38.80;;;15.32;;
64641;SDS011;59936;51.490;5.436;2022-10-31T04:06:47;29.70;;;15.18;;
64641;SDS011;59936;51.490;5.436;2022-10-31T04:11:54;30.70;;;15.93;;
64641;SDS011;59936;51.490;5.436;2022-10-31T04:17:00;39.75;;;16.95;;
64641;SDS011;59936;51.490;5.436;2022-10-31T04:22:07;37.17;;;16.58;;
64641;SDS011;59936;51.490;5.436;2022-10-31T04:27:09;41.13;;;16.23;;
64641;SDS011;59936;51.490;5.436;2022-10-31T04:32:12;35.97;;;16.77;;
64641;SDS011;59936;51.490;5.436;2022-10-31T04:37:15;40.50;;;16.50;;
64641;SDS011;59936;51.490;5.436;2022-10-31T04:42:17;42.03;;;18.83;;
64641;SDS011;59936;51.490;5.436;2022-10-31T04:47:19;33.28;;;17.02;;
64641;SDS011;59936;51.490;5.436;2022-10-31T04:52:22;42.92;;;18.15;;
64641;SDS011;59936;51.490;5.436;2022-10-31T04:57:24;46.45;;;19.30;;
64641;SDS011;59936;51.490;5.436;2022-10-31T05:02:25;44.45;;;18.55;;
64641;SDS011;59936;51.490;5.436;2022-10-31T05:07:28;40.58;;;18.83;;
64641;SDS011;59936;51.490;5.436;2022-10-31T05:12:32;42.33;;;18.25;;
64641;SDS011;59936;51.490;5.436;2022-10-31T05:17:33;50.28;;;18.05;;
64641;SDS011;59936;51.490;5.436;2022-10-31T05:22:36;52.03;;;18.65;;
64641;SDS011;59936;51.490;5.436;2022-10-31T05:27:38;49.67;;;18.75;;
64641;SDS011;59936;51.490;5.436;2022-10-31T05:32:41;43.08;;;17.98;;
64641;SDS011;59936;51.490;5.436;2022-10-31T05:37:47;43.40;;;17.85;;
64641;SDS011;59936;51.490;5.436;2022-10-31T05:42:50;47.97;;;18.30;;
64641;SDS011;59936;51.490;5.436;2022-10-31T05:47:55;53.20;;;18.60;;
64641;SDS011;59936;51.490;5.436;2022-10-31T05:53:00;56.45;;;19.25;;
64641;SDS011;59936;51.490;5.436;2022-10-31T05:58:04;51.00;;;18.45;;
64641;SDS011;59936;51.490;5.436;2022-10-31T06:03:08;50.97;;;18.40;;
64641;SDS011;59936;51.490;5.436;2022-10-31T06:08:12;53.60;;;18.90;;
64641;SDS011;59936;51.490;5.436;2022-10-31T06:13:13;49.78;;;20.08;;
64641;SDS011;59936;51.490;5.436;2022-10-31T06:18:15;47.53;;;19.23;;
64641;SDS011;59936;51.490;5.436;2022-10-31T06:23:18;44.50;;;19.23;;
64641;SDS011;59936;51.490;5.436;2022-10-31T06:28:20;43.10;;;18.67;;
64641;SDS011;59936;51.490;5.436;2022-10-31T06:33:23;58.17;;;21.90;;
64641;SDS011;59936;51.490;5.436;2022-10-31T06:38:26;45.35;;;18.73;;
64641;SDS011;59936;51.490;5.436;2022-10-31T06:43:29;58.40;;;20.55;;
64641;SDS011;59936;51.490;5.436;2022-10-31T06:48:31;60.58;;;19.30;;
64641;SDS011;59936;51.490;5.436;2022-10-31T06:53:34;51.42;;;19.05;;
64641;SDS011;59936;51.490;5.436;2022-10-31T06:58:36;53.05;;;21.58;;
64641;SDS011;59936;51.490;5.436;2022-10-31T07:03:37;55.47;;;20.92;;
64641;SDS011;59936;51.490;5.436;2022-10-31T07:08:40;59.80;;;20.55;;
64641;SDS011;59936;51.490;5.436;2022-10-31T07:13:42;57.53;;;20.55;;
64641;SDS011;59936;51.490;5.436;2022-10-31T07:23:48;50.20;;;20.27;;
64641;SDS011;59936;51.490;5.436;2022-10-31T07:28:50;61.42;;;22.00;;
64641;SDS011;59936;51.490;5.436;2022-10-31T07:33:51;67.40;;;24.88;;
64641;SDS011;59936;51.490;5.436;2022-10-31T07:38:54;66.88;;;25.67;;
64641;SDS011;59936;51.490;5.436;2022-10-31T07:43:58;75.25;;;25.92;;
64641;SDS011;59936;51.490;5.436;2022-10-31T07:49:01;71.03;;;24.52;;
64641;SDS011;59936;51.490;5.436;2022-10-31T07:54:04;61.38;;;23.88;;
64641;SDS011;59936;51.490;5.436;2022-10-31T07:59:07;63.08;;;25.10;;
64641;SDS011;59936;51.490;5.436;2022-10-31T08:04:08;76.78;;;27.67;;
64641;SDS011;59936;51.490;5.436;2022-10-31T08:09:11;75.43;;;28.02;;
64641;SDS011;59936;51.490;5.436;2022-10-31T08:14:13;69.43;;;29.63;;
64641;SDS011;59936;51.490;5.436;2022-10-31T08:19:16;80.20;;;30.08;;
64641;SDS011;59936;51.490;5.436;2022-10-31T08:24:19;86.80;;;34.22;;
64641;SDS011;59936;51.490;5.436;2022-10-31T08:29:23;104.57;;;41.58;;
64641;SDS011;59936;51.490;5.436;2022-10-31T08:34:24;73.80;;;34.72;;
64641;SDS011;59936;51.490;5.436;2022-10-31T08:39:29;49.22;;;27.02;;
64641;SDS011;59936;51.490;5.436;2022-10-31T08:44:31;48.00;;;25.48;;
64641;SDS011;59936;51.490;5.436;2022-10-31T08:49:32;46.90;;;25.02;;
64641;SDS011;59936;51.490;5.436;2022-10-31T08:59:37;37.55;;;22.92;;
64641;SDS011;59936;51.490;5.436;2022-10-31T09:04:39;34.75;;;24.27;;
64641;SDS011;59936;51.490;5.436;2022-10-31T09:09:41;42.88;;;26.02;;
64641;SDS011;59936;51.490;5.436;2022-10-31T09:14:43;40.45;;;24.55;;
64641;SDS011;59936;51.490;5.436;2022-10-31T09:19:45;37.03;;;23.27;;
64641;SDS011;59936;51.490;5.436;2022-10-31T09:24:48;36.60;;;22.30;;
64641;SDS011;59936;51.490;5.436;2022-10-31T09:29:50;34.63;;;22.45;;
64641;SDS011;59936;51.490;5.436;2022-10-31T09:34:51;36.13;;;22.98;;
64641;SDS011;59936;51.490;5.436;2022-10-31T09:39:55;34.92;;;23.70;;
64641;SDS011;59936;51.490;5.436;2022-10-31T09:44:58;40.22;;;23.17;;
64641;SDS011;59936;51.490;5.436;2022-10-31T09:50:14;39.75;;;23.75;;
64641;SDS011;59936;51.490;5.436;2022-10-31T09:55:24;36.30;;;22.70;;
64641;SDS011;59936;51.490;5.436;2022-10-31T10:00:36;43.03;;;24.48;;
64641;SDS011;59936;51.490;5.436;2022-10-31T10:10:48;38.33;;;22.35;;
64641;SDS011;59936;51.490;5.436;2022-10-31T10:16:01;35.60;;;22.98;;
64641;SDS011;59936;51.490;5.436;2022-10-31T10:21:21;38.85;;;22.42;;
64641;SDS011;59936;51.490;5.436;2022-10-31T10:26:40;38.00;;;22.55;;
64641;SDS011;59936;51.490;5.436;2022-10-31T10:31:49;37.22;;;24.27;;
64641;SDS011;59936;51.490;5.436;2022-10-31T10:36:57;42.53;;;26.83;;
64641;SDS011;59936;51.490;5.436;2022-10-31T10:42:09;43.33;;;25.58;;
64641;SDS011;59936;51.490;5.436;2022-10-31T10:47:33;51.88;;;26.98;;
64641;SDS011;59936;51.490;5.436;2022-10-31T10:52:46;43.65;;;25.50;;
64641;SDS011;59936;51.490;5.436;2022-10-31T10:58:01;49.20;;;27.83;;
64641;SDS011;59936;51.490;5.436;2022-10-31T11:03:07;45.80;;;26.52;;
64641;SDS011;59936;51.490;5.436;2022-10-31T11:08:09;39.50;;;25.48;;
64641;SDS011;59936;51.490;5.436;2022-10-31T11:13:20;40.08;;;23.08;;
64641;SDS011;59936;51.490;5.436;2022-10-31T11:18:25;33.33;;;19.40;;
64641;SDS011;59936;51.490;5.436;2022-10-31T11:23:29;42.20;;;25.40;;
64641;SDS011;59936;51.490;5.436;2022-10-31T11:28:33;40.10;;;23.88;;
64641;SDS011;59936;51.490;5.436;2022-10-31T11:33:36;38.97;;;23.02;;
64641;SDS011;59936;51.490;5.436;2022-10-31T11:38:47;43.78;;;23.25;;
64641;SDS011;59936;51.490;5.436;2022-10-31T11:43:52;40.85;;;22.92;;
64641;SDS011;59936;51.490;5.436;2022-10-31T11:48:58;35.80;;;21.80;;
64641;SDS011;59936;51.490;5.436;2022-10-31T11:54:00;30.77;;;21.08;;
64641;SDS011;59936;51.490;5.436;2022-10-31T11:59:17;37.08;;;20.48;;
64641;SDS011;59936;51.490;5.436;2022-10-31T12:04:28;33.22;;;20.52;;
64641;SDS011;59936;51.490;5.436;2022-10-31T12:09:41;31.83;;;20.75;;
64641;SDS011;59936;51.490;5.436;2022-10-31T12:14:49;31.75;;;20.45;;
64641;SDS011;59936;51.490;5.436;2022-10-31T12:20:10;34.47;;;20.25;;
64641;SDS011;59936;51.490;5.436;2022-10-31T12:25:28;32.25;;;19.20;;
64641;SDS011;59936;51.490;5.436;2022-10-31T12:30:49;32.95;;;19.92;;
64641;SDS011;59936;51.490;5.436;2022-10-31T12:36:18;32.45;;;19.83;;
64641;SDS011;59936;51.490;5.436;2022-10-31T12:41:37;39.13;;;19.50;;
64641;SDS011;59936;51.490;5.436;2022-10-31T12:46:54;31.70;;;18.85;;
64641;SDS011;59936;51.490;5.436;2022-10-31T12:52:25;25.93;;;16.47;;
64641;SDS011;59936;51.490;5.436;2022-10-31T12:57:44;30.55;;;15.65;;
64641;SDS011;59936;51.490;5.436;2022-10-31T13:02:54;30.02;;;16.23;;
64641;SDS011;59936;51.490;5.436;2022-10-31T13:08:04;25.25;;;13.02;;
64641;SDS011;59936;51.490;5.436;2022-10-31T13:13:13;30.13;;;14.93;;
64641;SDS011;59936;51.490;5.436;2022-10-31T13:23:32;25.83;;;15.52;;
64641;SDS011;59936;51.490;5.436;2022-10-31T13:28:36;20.52;;;11.20;;
64641;SDS011;59936;51.490;5.436;2022-10-31T13:33:48;33.47;;;14.38;;
64641;SDS011;59936;51.490;5.436;2022-10-31T13:38:57;22.63;;;13.07;;
64641;SDS011;59936;51.490;5.436;2022-10-31T13:44:13;25.48;;;13.52;;
64641;SDS011;59936;51.490;5.436;2022-10-31T13:49:35;24.50;;;12.73;;
64641;SDS011;59936;51.490;5.436;2022-10-31T13:54:40;23.23;;;12.32;;
64641;SDS011;59936;51.490;5.436;2022-10-31T13:59:46;23.95;;;12.30;;
64641;SDS011;59936;51.490;5.436;2022-10-31T14:04:55;23.60;;;12.00;;
64641;SDS011;59936;51.490;5.436;2022-10-31T14:10:02;21.40;;;13.05;;
64641;SDS011;59936;51.490;5.436;2022-10-31T14:15:13;19.48;;;12.00;;
64641;SDS011;59936;51.490;5.436;2022-10-31T14:20:24;21.00;;;11.52;;
64641;SDS011;59936;51.490;5.436;2022-10-31T14:25:36;17.08;;;11.07;;
64641;SDS011;59936;51.490;5.436;2022-10-31T14:30:38;18.27;;;10.88;;
64641;SDS011;59936;51.490;5.436;2022-10-31T14:35:53;21.42;;;11.73;;
64641;SDS011;59936;51.490;5.436;2022-10-31T14:41:09;22.65;;;11.65;;
64641;SDS011;59936;51.490;5.436;2022-10-31T14:46:33;21.73;;;11.57;;
64641;SDS011;59936;51.490;5.436;2022-10-31T14:51:52;19.83;;;11.32;;
64641;SDS011;59936;51.490;5.436;2022-10-31T14:56:56;21.48;;;11.82;;
64641;SDS011;59936;51.490;5.436;2022-10-31T15:02:08;21.63;;;12.00;;
64641;SDS011;59936;51.490;5.436;2022-10-31T15:07:18;24.70;;;10.88;;
64641;SDS011;59936;51.490;5.436;2022-10-31T15:12:25;20.55;;;10.82;;
64641;SDS011;59936;51.490;5.436;2022-10-31T15:17:31;15.32;;;11.00;;
64641;SDS011;59936;51.490;5.436;2022-10-31T15:22:34;16.75;;;10.43;;
64641;SDS011;59936;51.490;5.436;2022-10-31T15:27:36;19.85;;;9.50;;
64641;SDS011;59936;51.490;5.436;2022-10-31T15:32:43;20.23;;;10.93;;
64641;SDS011;59936;51.490;5.436;2022-10-31T15:37:48;18.77;;;9.93;;
64641;SDS011;59936;51.490;5.436;2022-10-31T15:42:51;18.08;;;10.48;;
64641;SDS011;59936;51.490;5.436;2022-10-31T15:47:58;19.88;;;10.27;;
64641;SDS011;59936;51.490;5.436;2022-10-31T15:53:04;18.35;;;10.27;;
64641;SDS011;59936;51.490;5.436;2022-10-31T15:58:16;16.85;;;10.20;;
64641;SDS011;59936;51.490;5.436;2022-10-31T16:03:22;21.40;;;10.07;;
64641;SDS011;59936;51.490;5.436;2022-10-31T16:08:33;16.23;;;9.70;;
64641;SDS011;59936;51.490;5.436;2022-10-31T16:13:37;20.80;;;9.50;;
64641;SDS011;59936;51.490;5.436;2022-10-31T16:18:53;16.70;;;9.23;;
64641;SDS011;59936;51.490;5.436;2022-10-31T16:23:59;17.88;;;9.90;;
64641;SDS011;59936;51.490;5.436;2022-10-31T16:34:33;17.75;;;9.45;;
64641;SDS011;59936;51.490;5.436;2022-10-31T16:39:36;20.23;;;9.02;;
64641;SDS011;59936;51.490;5.436;2022-10-31T16:44:37;14.38;;;8.82;;
64641;SDS011;59936;51.490;5.436;2022-10-31T16:49:39;13.68;;;8.48;;
64641;SDS011;59936;51.490;5.436;2022-10-31T16:54:43;22.58;;;8.95;;
64641;SDS011;59936;51.490;5.436;2022-10-31T16:59:45;19.55;;;8.63;;
64641;SDS011;59936;51.490;5.436;2022-10-31T17:04:59;14.55;;;8.13;;
64641;SDS011;59936;51.490;5.436;2022-10-31T17:15:05;17.08;;;8.05;;
64641;SDS011;59936;51.490;5.436;2022-10-31T17:20:17;15.07;;;8.40;;
64641;SDS011;59936;51.490;5.436;2022-10-31T17:25:25;17.13;;;7.00;;
64641;SDS011;59936;51.490;5.436;2022-10-31T17:30:32;17.92;;;8.35;;
64641;SDS011;59936;51.490;5.436;2022-10-31T17:35:35;16.48;;;8.07;;
64641;SDS011;59936;51.490;5.436;2022-10-31T17:40:39;18.85;;;8.85;;
64641;SDS011;59936;51.490;5.436;2022-10-31T17:45:42;21.15;;;9.02;;
64641;SDS011;59936;51.490;5.436;2022-10-31T17:50:43;16.95;;;8.10;;
64641;SDS011;59936;51.490;5.436;2022-10-31T17:55:48;16.38;;;8.25;;
64641;SDS011;59936;51.490;5.436;2022-10-31T18:00:49;22.20;;;9.13;;
64641;SDS011;59936;51.490;5.436;2022-10-31T18:05:52;17.20;;;8.50;;
64641;SDS011;59936;51.490;5.436;2022-10-31T18:10:57;12.73;;;8.00;;
64641;SDS011;59936;51.490;5.436;2022-10-31T18:16:01;20.67;;;9.65;;
64641;SDS011;59936;51.490;5.436;2022-10-31T18:21:08;16.42;;;8.73;;
64641;SDS011;59936;51.490;5.436;2022-10-31T18:31:13;15.68;;;8.07;;
64641;SDS011;59936;51.490;5.436;2022-10-31T18:36:15;13.88;;;8.02;;
64641;SDS011;59936;51.490;5.436;2022-10-31T18:41:18;18.33;;;8.02;;
64641;SDS011;59936;51.490;5.436;2022-10-31T18:46:20;12.77;;;8.02;;
64641;SDS011;59936;51.490;5.436;2022-10-31T18:51:22;14.23;;;7.70;;
64641;SDS011;59936;51.490;5.436;2022-10-31T18:56:25;14.75;;;7.40;;
64641;SDS011;59936;51.490;5.436;2022-10-31T19:01:30;16.48;;;7.68;;
64641;SDS011;59936;51.490;5.436;2022-10-31T19:06:33;17.20;;;8.23;;
64641;SDS011;59936;51.490;5.436;2022-10-31T19:11:37;16.17;;;8.23;;
64641;SDS011;59936;51.490;5.436;2022-10-31T19:16:41;20.25;;;7.90;;
64641;SDS011;59936;51.490;5.436;2022-10-31T19:21:42;16.42;;;7.80;;
64641;SDS011;59936;51.490;5.436;2022-10-31T19:26:47;20.88;;;7.15;;
64641;SDS011;59936;51.490;5.436;2022-10-31T19:31:49;13.40;;;7.85;;
64641;SDS011;59936;51.490;5.436;2022-10-31T19:36:51;18.13;;;7.47;;
64641;SDS011;59936;51.490;5.436;2022-10-31T19:41:54;14.63;;;7.05;;
64641;SDS011;59936;51.490;5.436;2022-10-31T19:46:57;16.15;;;7.45;;
64641;SDS011;59936;51.490;5.436;2022-10-31T19:51:59;12.13;;;6.50;;
64641;SDS011;59936;51.490;5.436;2022-10-31T19:57:03;15.73;;;7.07;;
64641;SDS011;59936;51.490;5.436;2022-10-31T20:02:05;16.73;;;6.72;;
64641;SDS011;59936;51.490;5.436;2022-10-31T20:07:07;9.55;;;4.25;;
64641;SDS011;59936;51.490;5.436;2022-10-31T20:17:11;10.75;;;6.43;;
64641;SDS011;59936;51.490;5.436;2022-10-31T20:22:13;13.70;;;6.00;;
64641;SDS011;59936;51.490;5.436;2022-10-31T20:27:16;9.68;;;6.05;;
64641;SDS011;59936;51.490;5.436;2022-10-31T20:32:18;17.13;;;7.07;;
64641;SDS011;59936;51.490;5.436;2022-10-31T20:37:20;13.02;;;5.82;;
64641;SDS011;59936;51.490;5.436;2022-10-31T20:42:23;12.93;;;6.30;;
64641;SDS011;59936;51.490;5.436;2022-10-31T20:47:26;13.60;;;6.13;;
64641;SDS011;59936;51.490;5.436;2022-10-31T20:52:28;10.50;;;6.60;;
64641;SDS011;59936;51.490;5.436;2022-10-31T20:57:33;9.85;;;6.05;;
64641;SDS011;59936;51.490;5.436;2022-10-31T21:02:35;11.90;;;6.13;;
64641;SDS011;59936;51.490;5.436;2022-10-31T21:07:40;11.52;;;6.68;;
64641;SDS011;59936;51.490;5.436;2022-10-31T21:12:43;10.00;;;5.78;;
64641;SDS011;59936;51.490;5.436;2022-10-31T21:17:47;13.07;;;6.47;;
64641;SDS011;59936;51.490;5.436;2022-10-31T21:22:49;14.82;;;6.07;;
64641;SDS011;59936;51.490;5.436;2022-10-31T21:27:52;10.60;;;5.97;;
64641;SDS011;59936;51.490;5.436;2022-10-31T21:32:53;11.05;;;5.28;;
64641;SDS011;59936;51.490;5.436;2022-10-31T21:37:56;13.93;;;6.05;;
64641;SDS011;59936;51.490;5.436;2022-10-31T21:42:59;10.32;;;5.47;;
64641;SDS011;59936;51.490;5.436;2022-10-31T21:48:03;14.68;;;6.15;;
64641;SDS011;59936;51.490;5.436;2022-10-31T21:53:05;9.00;;;5.93;;
64641;SDS011;59936;51.490;5.436;2022-10-31T21:58:23;13.93;;;6.25;;
64641;SDS011;59936;51.490;5.436;2022-10-31T22:03:24;11.75;;;5.80;;
64641;SDS011;59936;51.490;5.436;2022-10-31T22:08:27;12.40;;;6.18;;
64641;SDS011;59936;51.490;5.436;2022-10-31T22:13:30;12.23;;;5.70;;
64641;SDS011;59936;51.490;5.436;2022-10-31T22:18:34;11.95;;;5.78;;
64641;SDS011;59936;51.490;5.436;2022-10-31T22:23:36;13.88;;;5.72;;
64641;SDS011;59936;51.490;5.436;2022-10-31T22:28:41;11.20;;;5.35;;
64641;SDS011;59936;51.490;5.436;2022-10-31T22:33:44;10.77;;;5.70;;
64641;SDS011;59936;51.490;5.436;2022-10-31T22:38:47;13.15;;;5.30;;
64641;SDS011;59936;51.490;5.436;2022-10-31T22:43:51;12.90;;;5.60;;
64641;SDS011;59936;51.490;5.436;2022-10-31T22:48:54;10.77;;;5.43;;
64641;SDS011;59936;51.490;5.436;2022-10-31T22:53:58;9.88;;;5.97;;
64641;SDS011;59936;51.490;5.436;2022-10-31T22:59:02;8.15;;;5.53;;
64641;SDS011;59936;51.490;5.436;2022-10-31T23:04:03;14.45;;;5.50;;
64641;SDS011;59936;51.490;5.436;2022-10-31T23:09:05;11.50;;;5.82;;
64641;SDS011;59936;51.490;5.436;2022-10-31T23:14:10;9.70;;;5.90;;
64641;SDS011;59936;51.490;5.436;2022-10-31T23:19:18;8.27;;;5.97;;
64641;SDS011;59936;51.490;5.436;2022-10-31T23:24:24;14.23;;;6.07;;
64641;SDS011;59936;51.490;5.436;2022-10-31T23:29:35;15.15;;;6.28;;
64641;SDS011;59936;51.490;5.436;2022-10-31T23:34:43;11.30;;;5.85;;
64641;SDS011;59936;51.490;5.436;2022-10-31T23:39:46;18.33;;;5.78;;
64641;SDS011;59936;51.490;5.436;2022-10-31T23:44:49;10.60;;;5.68;;
64641;SDS011;59936;51.490;5.436;2022-10-31T23:49:51;9.30;;;5.30;;
64641;SDS011;59936;51.490;5.436;2022-10-31T23:54:53;11.75;;;5.90;;
